createdAt,value
2023-03-20T00:03:54.390Z,79.68
2023-03-20T00:07:57.611Z,78.43
2023-03-20T00:12:00.308Z,79.80
2023-03-20T00:16:02.761Z,74.28
2023-03-20T00:20:05.331Z,81.32
2023-03-20T00:24:07.952Z,75.20
2023-03-20T00:28:31.306Z,78.97
2023-03-20T00:32:33.378Z,85.93
2023-03-20T00:36:35.795Z,88.15
2023-03-20T00:40:38.123Z,89.03
2023-03-20T00:44:51.083Z,79.70
2023-03-20T00:48:53.614Z,73.95
2023-03-20T00:52:57.080Z,94.30
2023-03-20T00:57:02.560Z,85.85
2023-03-20T01:01:04.590Z,91.90
2023-03-20T01:05:06.767Z,92.75
2023-03-20T01:09:08.928Z,92.28
2023-03-20T01:13:19.149Z,86.55
2023-03-20T01:17:23.123Z,87.50
2023-03-20T01:21:25.271Z,82.05
2023-03-20T01:25:27.448Z,87.25
2023-03-20T01:29:32.574Z,89.45
2023-03-20T01:33:34.696Z,89.80
2023-03-20T01:37:37.163Z,92.38
2023-03-20T01:41:39.619Z,90.40
2023-03-20T01:46:14.192Z,89.45
2023-03-20T01:50:26.359Z,87.43
2023-03-20T01:54:43.920Z,93.25
2023-03-20T01:58:54.443Z,100.47
2023-03-20T02:02:57.394Z,92.00
2023-03-20T02:07:21.511Z,95.82
2023-03-20T02:11:43.467Z,95.60
2023-03-20T02:16:10.783Z,97.80
2023-03-20T02:20:43.195Z,100.40
2023-03-20T02:24:51.329Z,99.47
2023-03-20T02:33:39.128Z,107.68
2023-03-20T02:37:59.725Z,94.93
2023-03-20T02:42:33.949Z,101.35
2023-03-20T02:46:45.785Z,96.97
2023-03-20T02:51:27.038Z,103.43
2023-03-20T02:55:39.993Z,97.78
2023-03-20T03:00:18.101Z,97.53
2023-03-20T03:04:27.751Z,91.40
2023-03-20T03:08:37.458Z,98.53
2023-03-20T03:12:45.291Z,92.00
2023-03-20T03:16:49.945Z,95.47
2023-03-20T03:20:56.715Z,97.97
2023-03-20T03:24:59.235Z,97.32
2023-03-20T03:29:09.971Z,104.35
2023-03-20T03:33:17.145Z,96.28
2023-03-20T03:37:35.567Z,98.57
2023-03-20T03:41:46.196Z,101.68
2023-03-20T03:46:24.685Z,101.43
2023-03-20T03:50:38.645Z,96.18
2023-03-20T03:54:53.952Z,92.95
2023-03-20T03:59:19.681Z,97.05
2023-03-20T04:03:29.076Z,108.60
2023-03-20T04:07:31.451Z,100.72
2023-03-20T04:11:35.682Z,97.05
2023-03-20T04:15:38.481Z,102.10
2023-03-20T04:19:42.400Z,103.93
2023-03-20T04:23:44.977Z,106.00
2023-03-20T04:27:47.545Z,100.82
2023-03-20T04:31:59.857Z,94.03
2023-03-20T04:36:30.754Z,110.47
2023-03-20T04:40:33.108Z,110.05
2023-03-20T04:44:35.347Z,105.28
2023-03-20T04:48:38.024Z,105.88
2023-03-20T04:52:40.378Z,109.05
2023-03-20T04:56:42.771Z,106.45
2023-03-20T05:00:51.615Z,110.75
2023-03-20T05:04:54.225Z,110.75
2023-03-20T05:08:56.513Z,105.03
2023-03-20T05:12:58.857Z,105.47
2023-03-20T05:17:19.740Z,95.88
2023-03-20T05:21:41.726Z,103.32
2023-03-20T05:26:00.455Z,95.95
2023-03-20T05:30:11.481Z,110.78
2023-03-20T05:34:31.742Z,105.70
2023-03-20T05:38:44.149Z,105.75
2023-03-20T05:43:05.672Z,105.05
2023-03-20T05:47:16.542Z,102.07
2023-03-20T05:51:31.372Z,104.63
2023-03-20T05:55:45.511Z,109.85
2023-03-20T06:00:06.817Z,100.93
2023-03-20T06:04:20.613Z,103.93
2023-03-20T06:08:40.635Z,106.90
2023-03-20T06:12:43.126Z,97.20
2023-03-20T06:16:45.634Z,108.25
2023-03-20T06:20:53.687Z,96.85
2023-03-20T06:24:57.224Z,104.15
2023-03-20T06:29:06.225Z,99.22
2023-03-20T06:33:10.566Z,93.30
2023-03-20T06:37:26.661Z,90.25
2023-03-20T06:41:36.162Z,93.22
2023-03-20T06:45:43.006Z,91.18
2023-03-20T06:49:53.769Z,90.82
2023-03-20T06:53:56.757Z,92.78
2023-03-20T06:58:02.206Z,83.07
2023-03-20T07:02:06.254Z,85.63
2023-03-20T07:06:09.769Z,83.57
2023-03-20T07:10:12.760Z,82.90
2023-03-20T07:14:17.362Z,85.38
2023-03-20T07:18:25.752Z,82.40
2023-03-20T07:22:29.988Z,85.43
2023-03-20T07:26:48.000Z,78.90
2023-03-20T07:30:50.912Z,86.82
2023-03-20T07:34:53.672Z,79.00
2023-03-20T07:38:56.342Z,87.70
2023-03-20T07:42:59.513Z,83.78
2023-03-20T07:47:20.182Z,78.57
2023-03-20T07:51:22.237Z,86.38
2023-03-20T07:55:24.282Z,87.32
2023-03-20T07:59:26.491Z,78.57
2023-03-20T08:03:28.639Z,84.63
2023-03-20T08:07:31.017Z,68.93
2023-03-20T08:11:34.764Z,93.65
2023-03-20T08:15:37.327Z,70.63
2023-03-20T08:19:39.860Z,74.00
2023-03-20T08:23:41.602Z,69.45
2023-03-20T08:27:43.642Z,66.20
2023-03-20T08:31:45.876Z,71.88
2023-03-20T08:35:58.361Z,67.07
2023-03-20T08:40:00.427Z,77.45
2023-03-20T08:44:02.961Z,70.32
2023-03-20T08:48:05.194Z,66.03
2023-03-20T08:52:07.223Z,59.88
2023-03-20T08:56:10.165Z,64.22
2023-03-20T09:00:15.632Z,58.83
2023-03-20T09:04:18.471Z,59.53
2023-03-20T09:08:20.611Z,59.45
2023-03-20T09:12:22.461Z,56.88
2023-03-20T09:16:24.538Z,63.58
2023-03-20T09:20:26.853Z,63.90
2023-03-20T09:24:29.300Z,56.80
2023-03-20T09:28:31.342Z,45.60
2023-03-20T09:32:35.046Z,38.50
2023-03-20T09:36:37.389Z,28.50
2023-03-20T09:40:52.314Z,40.78
2023-03-20T09:45:01.383Z,41.10
2023-03-20T09:49:18.819Z,40.35
2023-03-20T09:53:36.178Z,37.72
2023-03-20T09:57:42.261Z,42.25
2023-03-20T10:01:50.007Z,36.10
2023-03-20T10:05:59.534Z,48.67
2023-03-20T10:10:01.697Z,37.60
2023-03-20T10:14:06.763Z,41.40
2023-03-20T10:18:18.392Z,40.90
2023-03-20T10:22:40.730Z,41.03
2023-03-20T10:26:46.389Z,40.03
2023-03-20T10:30:57.531Z,44.45
2023-03-20T10:35:02.432Z,41.80
2023-03-20T10:39:10.425Z,42.35
2023-03-20T10:43:23.828Z,40.03
2023-03-20T10:47:30.459Z,39.42
2023-03-20T10:51:48.600Z,39.00
2023-03-20T10:55:51.289Z,40.58
2023-03-20T10:59:58.462Z,40.45
2023-03-20T11:04:00.932Z,44.53
2023-03-20T11:08:13.226Z,59.78
2023-03-20T11:12:20.351Z,43.45
2023-03-20T11:16:33.058Z,47.40
2023-03-20T11:20:40.382Z,45.85
2023-03-20T11:24:46.259Z,52.92
2023-03-20T11:28:56.380Z,61.03
2023-03-20T11:33:02.000Z,58.60
2023-03-20T11:37:19.228Z,58.08
2023-03-20T11:41:30.354Z,64.07
2023-03-20T11:45:37.871Z,63.95
2023-03-20T11:49:55.415Z,58.42
2023-03-20T11:54:14.402Z,61.45
2023-03-20T11:58:17.444Z,65.95
2023-03-20T12:02:23.634Z,67.25
2023-03-20T12:06:36.852Z,59.03
2023-03-20T12:10:43.913Z,58.03
2023-03-20T12:14:52.226Z,49.92
2023-03-20T12:19:01.696Z,51.85
2023-03-20T12:23:14.156Z,49.15
2023-03-20T12:27:29.951Z,53.97
2023-03-20T12:31:53.868Z,55.03
2023-03-20T12:35:58.425Z,56.80
2023-03-20T12:40:04.428Z,57.75
2023-03-20T12:44:27.815Z,55.92
2023-03-20T12:48:44.626Z,58.28
2023-03-20T12:53:08.358Z,53.80
2023-03-20T12:57:33.200Z,48.58
2023-03-20T13:01:57.827Z,53.95
2023-03-20T13:06:31.268Z,52.53
2023-03-20T13:10:40.134Z,51.83
2023-03-20T13:14:52.138Z,56.17
2023-03-20T13:19:12.805Z,55.63
2023-03-20T13:23:36.349Z,57.22
2023-03-20T13:28:04.737Z,58.10
2023-03-20T13:32:21.492Z,65.93
2023-03-20T13:36:54.053Z,55.30
2023-03-20T13:41:03.385Z,52.92
2023-03-20T13:45:19.858Z,45.78
2023-03-20T13:49:27.764Z,42.47
2023-03-20T13:53:46.086Z,45.93
2023-03-20T13:58:13.620Z,50.38
2023-03-20T14:02:44.484Z,176.38
2023-03-20T14:06:54.663Z,193.50
2023-03-20T14:11:06.182Z,141.77
2023-03-20T14:15:12.285Z,77.80
2023-03-20T14:19:19.074Z,63.30
2023-03-20T14:23:34.104Z,64.85
2023-03-20T14:27:53.582Z,73.05
2023-03-20T14:32:13.745Z,79.88
2023-03-20T14:36:21.620Z,61.05
2023-03-20T14:40:30.720Z,58.93
2023-03-20T14:44:53.289Z,78.35
2023-03-20T14:48:56.438Z,57.95
2023-03-20T14:53:27.325Z,67.18
2023-03-20T14:57:52.860Z,56.72
2023-03-20T15:01:59.788Z,53.58
2023-03-20T15:06:06.559Z,54.53
2023-03-20T15:10:08.905Z,48.65
2023-03-20T15:14:21.060Z,48.92
2023-03-20T15:18:25.424Z,48.50
2023-03-20T15:22:27.727Z,48.15
2023-03-20T15:26:32.977Z,53.35
2023-03-20T15:30:38.699Z,49.15
2023-03-20T15:34:42.361Z,54.03
2023-03-20T15:38:46.879Z,57.30
2023-03-20T15:42:58.728Z,46.25
2023-03-20T15:47:04.157Z,34.50
2023-03-20T15:51:06.711Z,35.95
2023-03-20T15:55:16.682Z,40.15
2023-03-20T15:59:23.473Z,29.27
2023-03-20T16:03:27.605Z,32.85
2023-03-20T16:07:32.589Z,28.50
2023-03-20T16:11:43.845Z,25.23
2023-03-20T16:15:46.477Z,29.77
2023-03-20T16:19:48.864Z,32.45
2023-03-20T16:23:54.760Z,29.27
2023-03-20T16:27:58.498Z,22.67
2023-03-20T16:32:07.750Z,40.42
2023-03-20T16:36:18.873Z,42.70
2023-03-20T16:40:32.746Z,36.25
2023-03-20T16:44:36.937Z,22.90
2023-03-20T16:48:42.520Z,38.90
2023-03-20T16:53:10.206Z,24.75
2023-03-20T16:57:18.322Z,32.80
2023-03-20T17:01:23.766Z,23.00
2023-03-20T17:05:36.825Z,22.20
2023-03-20T17:10:14.572Z,34.35
2023-03-20T17:14:17.334Z,20.35
2023-03-20T17:18:19.798Z,19.75
2023-03-20T17:22:24.301Z,32.90
2023-03-20T17:26:26.595Z,27.60
2023-03-20T17:30:28.756Z,40.30
2023-03-20T17:34:31.425Z,56.10
2023-03-20T17:38:33.540Z,75.78
2023-03-20T17:42:35.566Z,83.60
2023-03-20T17:46:53.924Z,41.50
2023-03-20T17:50:59.208Z,39.13
2023-03-20T17:55:01.328Z,40.67
2023-03-20T17:59:03.579Z,38.63
2023-03-20T18:03:05.788Z,33.08
2023-03-20T18:07:09.314Z,36.05
2023-03-20T18:11:11.468Z,28.52
2023-03-20T18:15:13.748Z,29.15
2023-03-20T18:19:25.769Z,32.88
2023-03-20T18:23:28.000Z,36.17
2023-03-20T18:27:29.730Z,32.38
2023-03-20T18:31:31.870Z,35.22
2023-03-20T18:35:37.155Z,37.55
2023-03-20T18:39:39.392Z,34.35
2023-03-20T18:43:41.965Z,41.05
2023-03-20T18:47:44.076Z,45.97
2023-03-20T18:51:46.498Z,52.28
2023-03-20T18:55:48.680Z,55.78
2023-03-20T18:59:50.662Z,57.25
2023-03-20T19:03:53.978Z,49.70
2023-03-20T19:07:56.555Z,58.92
2023-03-20T19:11:58.763Z,63.75
2023-03-20T19:16:01.074Z,58.40
2023-03-20T19:20:03.783Z,59.17
2023-03-20T19:24:07.105Z,68.53
2023-03-20T19:28:21.670Z,76.97
2023-03-20T19:32:25.080Z,79.03
2023-03-20T19:36:32.668Z,90.65
2023-03-20T19:40:43.017Z,95.25
2023-03-20T19:44:45.413Z,95.53
2023-03-20T19:48:51.163Z,99.13
2023-03-20T19:52:56.445Z,96.93
2023-03-20T19:56:58.435Z,93.82
2023-03-20T20:01:00.602Z,99.07
2023-03-20T20:05:02.830Z,77.85
2023-03-20T20:09:05.233Z,79.28
2023-03-20T20:13:07.412Z,85.75
2023-03-20T20:17:09.529Z,74.82
2023-03-20T20:22:02.503Z,89.15
2023-03-20T20:25:33.515Z,86.07
2023-03-20T20:29:35.644Z,112.18
2023-03-20T20:33:38.438Z,103.03
2023-03-20T20:42:05.131Z,108.22
2023-03-20T20:46:06.940Z,110.55
2023-03-20T20:50:11.760Z,115.97
2023-03-20T20:54:14.232Z,116.47
2023-03-20T20:58:16.368Z,111.68
2023-03-20T21:02:18.498Z,100.57
2023-03-20T21:06:21.924Z,101.55
2023-03-20T21:10:24.041Z,95.75
2023-03-20T21:14:26.414Z,95.60
2023-03-20T21:18:28.469Z,89.60
2023-03-20T21:22:30.715Z,99.60
2023-03-20T21:26:32.463Z,85.88
2023-03-20T21:30:34.682Z,79.10
2023-03-20T21:34:38.060Z,83.80
2023-03-20T21:43:02.442Z,77.82
2023-03-20T21:47:55.806Z,80.05
2023-03-20T21:56:40.287Z,98.72
2023-03-20T22:01:03.256Z,98.80
2023-03-20T22:05:34.856Z,78.28
2023-03-20T22:09:45.453Z,83.10
2023-03-20T22:23:00.324Z,136.45
2023-03-20T22:27:18.877Z,245.13
2023-03-20T22:48:20.893Z,86.20
2023-03-20T22:52:34.704Z,87.72
2023-03-20T22:56:40.571Z,127.10
2023-03-20T23:00:42.958Z,103.38
2023-03-20T23:04:45.111Z,101.28
2023-03-20T23:08:54.568Z,100.43
2023-03-20T23:12:59.280Z,90.55
2023-03-20T23:17:01.488Z,97.32
2023-03-20T23:21:04.171Z,109.85
2023-03-20T23:25:16.400Z,91.30
2023-03-20T23:29:23.061Z,90.20
2023-03-20T23:33:25.280Z,114.72
2023-03-20T23:37:27.421Z,135.90
2023-03-20T23:41:54.028Z,107.70
2023-03-20T23:45:51.576Z,124.88
2023-03-20T23:49:53.658Z,124.80
2023-03-20T23:53:55.760Z,97.93
2023-03-20T23:57:57.418Z,120.03
